Time;durP1;ratioP1;P1;durP2;ratioP2;P2;SDS_P1;SDS_P2;PMS_P1;PMS_P2;Temp;Humidity;BMP_temperature;BMP_pressure;BME280_temperature;BME280_humidity;BME280_pressure;Samples;Min_cycle;Max_cycle;Signal;HPM_P1;HPM_P2
2023/11/06 00:01:52;;;;;;;8.43;2.20;;;14.80;99.90;;;;;;4989812;28;20173;-56
2023/11/06 00:04:18;;;;;;;4.57;2.00;;;14.90;99.90;;;;;;4989925;28;20050;-56
2023/11/06 00:06:44;;;;;;;5.97;1.70;;;15.10;99.90;;;;;;5006854;28;20041;-56
2023/11/06 00:09:10;;;;;;;4.18;1.40;;;14.80;99.90;;;;;;5012014;28;20026;-56
2023/11/06 00:11:36;;;;;;;3.25;1.40;;;15.10;99.90;;;;;;5011999;28;20041;-56
2023/11/06 00:14:02;;;;;;;4.00;1.40;;;15.10;99.90;;;;;;5011716;28;20034;-56
2023/11/06 00:16:28;;;;;;;4.65;1.30;;;15.20;99.90;;;;;;5011908;28;20083;-57
2023/11/06 00:18:54;;;;;;;3.65;1.20;;;14.90;99.90;;;;;;5012004;28;20030;-56
2023/11/06 00:21:21;;;;;;;5.03;1.67;;;15.00;99.90;;;;;;5011941;28;20462;-57
2023/11/06 00:23:47;;;;;;;5.35;1.63;;;14.60;99.90;;;;;;5011746;28;20057;-56
2023/11/06 00:26:16;;;;;;;7.35;1.85;;;14.70;99.90;;;;;;5011904;28;20026;-56
2023/11/06 00:28:43;;;;;;;7.75;1.90;;;14.30;99.90;;;;;;5011551;28;20073;-56
2023/11/06 00:31:09;;;;;;;5.47;1.90;;;14.20;99.90;;;;;;4990468;28;20053;-56
2023/11/06 00:33:35;;;;;;;3.78;1.50;;;14.10;99.90;;;;;;5011753;28;20041;-56
2023/11/06 00:36:01;;;;;;;3.83;1.27;;;14.10;99.90;;;;;;5011868;28;20481;-56
2023/11/06 00:38:27;;;;;;;8.38;2.58;;;14.10;99.90;;;;;;5011894;28;20034;-56
2023/11/06 00:40:52;;;;;;;5.15;1.77;;;14.30;99.90;;;;;;5011574;28;20616;-56
2023/11/06 00:43:18;;;;;;;5.30;2.00;;;14.20;99.90;;;;;;5011521;28;20105;-56
2023/11/06 00:45:44;;;;;;;4.45;1.90;;;14.20;99.90;;;;;;5011878;28;20030;-56
2023/11/06 00:48:10;;;;;;;7.68;1.80;;;14.00;99.90;;;;;;5014749;28;20061;-55
2023/11/06 00:50:36;;;;;;;4.15;1.73;;;13.90;99.90;;;;;;5015328;28;20076;-55
2023/11/06 00:53:03;;;;;;;4.38;1.77;;;13.80;99.90;;;;;;5015361;28;20133;-56
2023/11/06 00:55:30;;;;;;;5.78;1.80;;;;;;;;;;5015204;28;20117;-56
2023/11/06 00:57:56;;;;;;;4.53;1.70;;;;;;;;;;5015069;28;20076;-56
2023/11/06 01:00:22;;;;;;;6.00;1.70;;;13.70;99.90;;;;;;5015307;28;20085;-56
2023/11/06 01:02:51;;;;;;;5.38;1.52;;;;;;;;;;5014935;28;20477;-55
2023/11/06 01:05:17;;;;;;;5.38;2.00;;;;;;;;;;5022976;28;20485;-56
2023/11/06 01:07:43;;;;;;;6.95;2.17;;;;;;;;;;5035003;28;20029;-56
2023/11/06 01:10:09;;;;;;;5.60;1.60;;;13.60;99.90;;;;;;4999635;28;20510;-56
2023/11/06 01:12:35;;;;;;;3.20;1.40;;;13.80;99.90;;;;;;5034665;28;20125;-56
2023/11/06 01:15:01;;;;;;;7.50;1.85;;;13.90;99.90;;;;;;5034499;28;20473;-55
2023/11/06 01:17:27;;;;;;;5.60;1.83;;;14.00;99.90;;;;;;5015673;28;20076;-56
2023/11/06 01:19:53;;;;;;;5.32;1.95;;;14.10;99.90;;;;;;5034490;28;20108;-56
2023/11/06 01:22:19;;;;;;;6.35;1.77;;;14.10;99.90;;;;;;5034350;28;20443;-56
2023/11/06 01:24:46;;;;;;;5.20;1.50;;;14.10;99.90;;;;;;5034320;28;20091;-55
2023/11/06 01:27:11;;;;;;;3.83;1.13;;;14.00;99.90;;;;;;5034696;28;20033;-56
2023/11/06 01:29:37;;;;;;;6.18;1.80;;;13.90;99.90;;;;;;5016411;28;20755;-56
2023/11/06 01:32:04;;;;;;;3.58;1.70;;;13.80;99.90;;;;;;5029649;28;20172;-55
2023/11/06 01:34:30;;;;;;;4.07;1.42;;;13.90;99.90;;;;;;5034068;28;20045;-56
2023/11/06 01:36:56;;;;;;;4.72;1.88;;;14.00;99.90;;;;;;5034497;28;20372;-56
2023/11/06 01:39:22;;;;;;;18.20;1.60;;;13.90;99.90;;;;;;4982774;28;20132;-56
2023/11/06 01:41:48;;;;;;;5.13;1.35;;;13.90;99.90;;;;;;5033976;28;20032;-56
2023/11/06 01:44:14;;;;;;;5.07;1.42;;;13.90;99.90;;;;;;5033927;28;20030;-56
2023/11/06 01:46:41;;;;;;;10.85;1.90;;;14.00;99.90;;;;;;5034008;28;20709;-56
2023/11/06 01:49:08;;;;;;;6.82;1.60;;;14.20;99.90;;;;;;5015234;28;20099;-56
2023/11/06 01:51:36;;;;;;;4.30;1.52;;;14.10;99.90;;;;;;5033942;28;20041;-56
2023/11/06 01:54:03;;;;;;;4.43;2.03;;;14.20;99.90;;;;;;4998893;28;20045;-56
2023/11/06 01:56:32;;;;;;;7.35;2.33;;;14.20;99.90;;;;;;5033887;28;20079;-56
2023/11/06 01:59:01;;;;;;;4.10;1.95;;;14.30;99.90;;;;;;5032762;28;20091;-56
2023/11/06 02:01:29;;;;;;;8.05;1.73;;;14.40;99.90;;;;;;5033452;28;20038;-56
2023/11/06 02:03:55;;;;;;;9.40;2.33;;;14.50;99.90;;;;;;5033235;28;20045;-56
2023/11/06 02:06:26;;;;;;;4.90;1.65;;;14.50;99.90;;;;;;5033538;28;20038;-55
2023/11/06 02:08:52;;;;;;;4.97;1.77;;;14.60;99.90;;;;;;5033895;28;20484;-55
2023/11/06 02:11:19;;;;;;;5.28;1.83;;;14.60;99.90;;;;;;5033354;28;20607;-56
2023/11/06 02:13:45;;;;;;;5.53;1.75;;;14.60;99.90;;;;;;5033609;28;20033;-56
2023/11/06 02:16:11;;;;;;;6.00;1.50;;;14.70;99.90;;;;;;5033356;28;20511;-56
2023/11/06 02:18:36;;;;;;;3.80;1.30;;;14.70;99.90;;;;;;5033607;28;20029;-56
2023/11/06 02:21:03;;;;;;;4.05;1.77;;;14.80;99.90;;;;;;5033600;28;20092;-56
2023/11/06 02:23:29;;;;;;;6.13;2.55;;;14.80;99.90;;;;;;5033207;28;20037;-56
2023/11/06 02:25:55;;;;;;;4.55;1.60;;;14.90;99.90;;;;;;4991388;28;20061;-56
2023/11/06 02:28:20;;;;;;;5.68;1.55;;;14.90;99.90;;;;;;4991430;28;20125;-56
2023/11/06 02:30:51;;;;;;;4.03;1.40;;;15.00;99.90;;;;;;4959068;28;20473;-56
2023/11/06 02:33:18;;;;;;;7.03;1.75;;;15.00;99.90;;;;;;4991403;28;20169;-56
2023/11/06 02:35:44;;;;;;;4.97;1.48;;;15.00;99.90;;;;;;4991314;28;20044;-56
2023/11/06 02:38:09;;;;;;;4.43;1.20;;;15.00;99.90;;;;;;4991389;28;20030;-55
2023/11/06 02:40:35;;;;;;;4.93;1.45;;;15.10;99.90;;;;;;4991080;28;20535;-56
2023/11/06 02:43:01;;;;;;;3.47;1.27;;;15.10;99.90;;;;;;4991206;28;20030;-56
2023/11/06 02:45:26;;;;;;;5.40;1.40;;;15.10;99.90;;;;;;4991044;28;20540;-56
2023/11/06 02:47:52;;;;;;;4.80;1.25;;;15.10;99.90;;;;;;4991209;28;20720;-56
2023/11/06 02:50:19;;;;;;;4.45;1.33;;;15.10;99.90;;;;;;4991122;28;20038;-56
2023/11/06 02:52:45;;;;;;;3.58;1.60;;;15.10;99.90;;;;;;4990893;28;20077;-56
2023/11/06 02:55:10;;;;;;;3.80;1.98;;;15.10;99.90;;;;;;4990966;28;20030;-56
2023/11/06 02:57:36;;;;;;;4.75;1.23;;;15.10;99.90;;;;;;5023653;28;20045;-56
2023/11/06 03:00:06;;;;;;;4.07;1.30;;;15.20;99.90;;;;;;5033155;28;20030;-56
2023/11/06 03:02:34;;;;;;;5.85;1.10;;;15.20;99.90;;;;;;4982285;28;20481;-56
2023/11/06 03:05:01;;;;;;;2.83;1.13;;;15.20;99.90;;;;;;4981876;28;20420;-56
2023/11/06 03:07:27;;;;;;;5.05;1.17;;;15.20;99.90;;;;;;5032607;28;20456;-55
2023/11/06 03:09:53;;;;;;;3.60;1.20;;;15.20;99.90;;;;;;5031871;28;20068;-55
2023/11/06 03:12:19;;;;;;;5.65;1.13;;;15.20;99.90;;;;;;5014995;28;20120;-55
2023/11/06 03:14:44;;;;;;;4.13;1.50;;;15.30;99.90;;;;;;5032539;28;20113;-55
2023/11/06 03:17:10;;;;;;;2.55;1.00;;;15.30;99.90;;;;;;5032421;28;20076;-55
2023/11/06 03:19:36;;;;;;;8.60;2.55;;;15.30;99.90;;;;;;5032746;28;20535;-56
2023/11/06 03:22:02;;;;;;;6.50;1.40;;;15.40;99.90;;;;;;5032569;28;20452;-55
2023/11/06 03:24:27;;;;;;;4.13;1.02;;;15.50;99.90;;;;;;5032467;28;20025;-55
2023/11/06 03:26:53;;;;;;;3.40;1.10;;;15.50;99.90;;;;;;5031544;28;20431;-56
2023/11/06 03:29:19;;;;;;;4.72;1.20;;;15.50;99.90;;;;;;4951499;28;20095;-55
2023/11/06 03:31:45;;;;;;;4.65;1.63;;;15.40;99.90;;;;;;5032923;28;20473;-55
2023/11/06 03:34:11;;;;;;;4.78;2.15;;;15.40;99.90;;;;;;5051932;28;20033;-56
2023/11/06 03:36:45;;;;;;;4.03;1.20;;;15.00;99.90;;;;;;5052303;28;20376;-56
2023/11/06 03:39:11;;;;;;;4.30;1.52;;;14.80;99.90;;;;;;5051926;28;20082;-55
2023/11/06 03:41:37;;;;;;;4.85;1.20;;;14.50;99.90;;;;;;5051815;28;20644;-56
2023/11/06 03:44:03;;;;;;;3.30;1.20;;;;;;;;;;5052255;28;20052;-55
2023/11/06 03:46:29;;;;;;;2.63;0.90;;;14.00;99.90;;;;;;5052137;28;20587;-55
2023/11/06 03:48:55;;;;;;;2.13;1.00;;;13.90;99.90;;;;;;5051716;28;20033;-55
2023/11/06 03:51:21;;;;;;;4.90;0.95;;;13.80;99.90;;;;;;5051732;28;20033;-55
2023/11/06 03:53:47;;;;;;;5.32;1.27;;;;;;;;;;5051583;28;20037;-55
2023/11/06 03:56:13;;;;;;;4.30;0.95;;;14.00;99.90;;;;;;5051829;28;20036;-55
2023/11/06 03:58:39;;;;;;;2.00;0.85;;;13.90;99.90;;;;;;5051641;28;20103;-56
2023/11/06 04:01:05;;;;;;;5.57;1.98;;;13.90;99.90;;;;;;5051968;28;20025;-55
2023/11/06 04:03:31;;;;;;;4.35;0.90;;;;;;;;;;5016397;28;20044;-55
2023/11/06 04:05:58;;;;;;;3.08;1.30;;;;;;;;;;5051341;28;20063;-56
2023/11/06 04:08:25;;;;;;;4.53;1.27;;;;;;;;;;5051581;28;20033;-55
2023/11/06 04:10:51;;;;;;;4.25;0.95;;;;;;;;;;5051698;28;20137;-56
2023/11/06 04:13:17;;;;;;;2.38;0.90;;;;;;;;;;5051997;28;20061;-56
2023/11/06 04:15:44;;;;;;;2.85;1.10;;;;;;;;;;4984059;28;20079;-56
2023/11/06 04:18:10;;;;;;;3.85;1.15;;;;;;;;;;5051865;28;20039;-55
2023/11/06 04:20:36;;;;;;;3.30;1.25;;;;;;;;;;5016233;28;20049;-55
2023/11/06 04:23:03;;;;;;;2.63;1.00;;;;;;;;;;5054763;28;20041;-56
2023/11/06 04:25:29;;;;;;;7.03;1.10;;;;;;;;;;5055596;28;20029;-55
2023/11/06 04:27:57;;;;;;;4.55;1.35;;;;;;;;;;5055324;28;20053;-55
2023/11/06 04:30:24;;;;;;;2.30;0.88;;;;;;;;;;5055523;28;20733;-55
2023/11/06 04:32:50;;;;;;;5.45;1.33;;;;;;;;;;5055278;28;20053;-56
2023/11/06 04:35:16;;;;;;;5.68;1.50;;;;;;;;;;5004153;28;20044;-55
2023/11/06 04:37:42;;;;;;;4.97;1.25;;;;;;;;;;5055392;28;20025;-56
2023/11/06 04:40:11;;;;;;;3.90;1.40;;;;;;;;;;5055200;28;20059;-55
2023/11/06 04:42:37;;;;;;;7.22;1.58;;;;;;;;;;5055096;28;20025;-55
2023/11/06 04:45:04;;;;;;;4.72;1.50;;;;;;;;;;5055046;28;20032;-55
2023/11/06 04:47:30;;;;;;;6.68;1.77;;;;;;;;;;5055511;28;20384;-55
2023/11/06 04:49:56;;;;;;;5.07;1.88;;;;;;;;;;5054648;28;20029;-55
2023/11/06 04:52:22;;;;;;;4.65;1.80;;;;;;;;;;5055367;28;20021;-55
2023/11/06 04:54:48;;;;;;;6.57;2.00;;;14.20;99.90;;;;;;5055083;28;20126;-55
2023/11/06 04:57:14;;;;;;;4.72;1.73;;;14.20;99.90;;;;;;5054814;28;20071;-55
2023/11/06 04:59:45;;;;;;;7.65;1.77;;;14.30;99.90;;;;;;5054754;28;20013;-56
2023/11/06 05:02:11;;;;;;;4.80;1.63;;;14.30;99.90;;;;;;5055060;28;20459;-55
2023/11/06 05:04:37;;;;;;;4.40;1.80;;;14.40;99.90;;;;;;5054760;28;20622;-55
2023/11/06 05:07:04;;;;;;;18.20;11.60;;;14.40;99.90;;;;;;5019281;28;20079;-56
2023/11/06 05:09:30;;;;;;;6.25;3.78;;;14.40;99.90;;;;;;5003283;28;20048;-55
2023/11/06 05:11:56;;;;;;;278.35;249.68;;;14.50;99.90;;;;;;5035785;28;20041;-56
2023/11/06 05:14:22;;;;;;;48.25;43.80;;;14.50;99.90;;;;;;5054361;28;20104;-55
2023/11/06 05:16:48;;;;;;;93.50;85.75;;;14.60;99.90;;;;;;5054359;28;20079;-55
2023/11/06 05:19:14;;;;;;;5.97;5.38;;;14.50;99.90;;;;;;5054398;28;20032;-55
2023/11/06 05:21:39;;;;;;;5.25;1.65;;;14.40;99.90;;;;;;5054331;28;20021;-56
2023/11/06 05:24:06;;;;;;;4.90;2.30;;;14.50;99.90;;;;;;5019017;28;20055;-56
2023/11/06 05:26:32;;;;;;;4.75;1.38;;;14.50;99.90;;;;;;5002781;28;20099;-55
2023/11/06 05:28:57;;;;;;;4.88;1.35;;;14.50;99.90;;;;;;5053636;28;20043;-55
2023/11/06 05:31:23;;;;;;;5.15;1.95;;;14.40;99.90;;;;;;5053854;28;20098;-56
2023/11/06 05:33:52;;;;;;;6.07;1.50;;;14.30;99.90;;;;;;5053648;28;20021;-55
2023/11/06 05:36:18;;;;;;;3.88;1.80;;;14.10;99.90;;;;;;5054019;28;20084;-56
2023/11/06 05:38:44;;;;;;;5.97;1.60;;;14.00;99.90;;;;;;5018242;28;20480;-56
2023/11/06 05:41:11;;;;;;;6.38;2.15;;;14.00;99.90;;;;;;5054506;28;20028;-56
2023/11/06 05:43:37;;;;;;;4.15;1.92;;;14.00;99.90;;;;;;5054054;28;20029;-55
2023/11/06 05:46:05;;;;;;;8.23;2.17;;;14.10;99.90;;;;;;5053823;28;20492;-56
2023/11/06 05:48:32;;;;;;;6.53;1.65;;;14.30;99.90;;;;;;4970345;28;20040;-56
2023/11/06 05:50:59;;;;;;;5.22;1.60;;;14.40;99.90;;;;;;5053711;28;20032;-56
2023/11/06 05:53:25;;;;;;;4.72;1.55;;;14.40;99.90;;;;;;5053908;28;20062;-55
2023/11/06 05:55:51;;;;;;;12.07;1.90;;;14.40;99.90;;;;;;5053878;28;20103;-56
2023/11/06 05:58:16;;;;;;;4.55;1.25;;;14.40;99.90;;;;;;5018360;28;20532;-56
2023/11/06 06:00:42;;;;;;;7.72;2.00;;;14.60;99.90;;;;;;5053701;28;20036;-56
2023/11/06 06:03:08;;;;;;;4.10;1.40;;;;;;;;;;5053196;28;20450;-56
2023/11/06 06:05:35;;;;;;;6.82;2.03;;;;;;;;;;5053615;28;20057;-55
2023/11/06 06:08:01;;;;;;;5.38;1.30;;;;;;;;;;5053702;28;20372;-55
2023/11/06 06:10:27;;;;;;;5.00;1.40;;;;;;;;;;5053037;28;20127;-56
2023/11/06 06:12:53;;;;;;;3.00;1.67;;;;;;;;;;5052559;28;20039;-56
2023/11/06 06:15:19;;;;;;;3.05;1.42;;;;;;;;;;5053443;28;20064;-56
2023/11/06 06:17:45;;;;;;;3.58;1.60;;;;;;;;;;5053590;28;20036;-56
2023/11/06 06:20:15;;;;;;;4.55;2.05;;;;;;;;;;5052911;28;20024;-56
2023/11/06 06:22:41;;;;;;;3.33;1.60;;;;;;;;;;5001649;28;20034;-56
2023/11/06 06:25:08;;;;;;;6.50;2.33;;;;;;;;;;5053509;28;20590;-55
2023/11/06 06:27:37;;;;;;;7.57;2.60;;;;;;;;;;5052933;28;20033;-55
2023/11/06 06:30:06;;;;;;;6.80;1.95;;;;;;;;;;5053021;28;20040;-56
2023/11/06 06:32:32;;;;;;;4.72;2.00;;;;;;;;;;5052983;28;20108;-56
2023/11/06 06:34:58;;;;;;;5.03;2.30;;;;;;;;;;5053031;28;20190;-56
2023/11/06 06:37:24;;;;;;;7.68;2.78;;;;;;;;;;5052481;28;20521;-56
2023/11/06 06:39:50;;;;;;;8.90;2.75;;;;;;;;;;5001423;28;20484;-56
2023/11/06 06:42:17;;;;;;;4.72;2.42;;;14.50;99.90;;;;;;5052767;28;20388;-56
2023/11/06 06:44:43;;;;;;;4.72;1.98;;;14.60;99.90;;;;;;5052302;28;20108;-56
2023/11/06 06:47:09;;;;;;;6.28;2.25;;;14.70;99.90;;;;;;5017582;28;20089;-56
2023/11/06 06:49:41;;;;;;;5.93;2.00;;;;;;;;;;5017560;28;20037;-56
2023/11/06 06:52:07;;;;;;;;;;;;;;;;;;5053331;28;20029;-56
2023/11/06 06:54:34;;;;;;;6.85;2.20;;;;;;;;;;5052110;28;19964;-56
2023/11/06 06:57:01;;;;;;;6.22;3.03;;;15.00;99.90;;;;;;5052629;28;20028;-55
2023/11/06 06:59:27;;;;;;;6.78;2.75;;;;;;;;;;5017273;28;20442;-56
2023/11/06 07:01:53;;;;;;;5.38;2.70;;;;;;;;;;5052752;28;20031;-56
2023/11/06 07:04:19;;;;;;;8.50;2.53;;;;;;;;;;5052622;28;20400;-55
2023/11/06 07:06:46;;;;;;;9.27;3.30;;;;;;;;;;5052393;28;20563;-57
2023/11/06 07:09:13;;;;;;;6.18;2.65;;;;;;;;;;5052394;28;20507;-56
2023/11/06 07:11:39;;;;;;;8.68;3.55;;;;;;;;;;5052247;28;20494;-57
2023/11/06 07:14:05;;;;;;;10.93;3.83;;;;;;;;;;5052395;28;20032;-56
2023/11/06 07:16:31;;;;;;;6.30;3.47;;;;;;;;;;5001087;28;20039;-57
2023/11/06 07:18:57;;;;;;;8.32;4.03;;;;;;;;;;5052210;28;20688;-56
2023/11/06 07:21:23;;;;;;;6.70;3.60;;;;;;;;;;5052132;28;20108;-57
2023/11/06 07:23:50;;;;;;;6.63;3.58;;;16.50;99.90;;;;;;5052252;28;20027;-56
2023/11/06 07:26:15;;;;;;;16.45;11.73;;;16.60;99.90;;;;;;5052184;28;20028;-57
2023/11/06 07:28:41;;;;;;;15.18;11.13;;;16.80;99.90;;;;;;5051975;28;20025;-56
2023/11/06 07:31:08;;;;;;;30.52;22.85;;;;;;;;;;5052020;28;20090;-57
2023/11/06 07:33:34;;;;;;;24.27;19.63;;;;;;;;;;5052466;28;20439;-57
2023/11/06 07:36:00;;;;;;;24.13;18.77;;;18.20;99.90;;;;;;5052073;28;20037;-53
2023/11/06 07:38:26;;;;;;;17.05;13.20;;;18.20;99.90;;;;;;5051798;28;20391;-55
2023/11/06 07:40:52;;;;;;;15.63;9.32;;;18.40;99.90;;;;;;5000190;28;20041;-55
2023/11/06 07:43:17;;;;;;;18.23;10.68;;;18.20;99.90;;;;;;5052156;28;20072;-56
2023/11/06 07:45:43;;;;;;;14.50;9.07;;;18.30;99.90;;;;;;5048817;28;20025;-55
2023/11/06 07:48:09;;;;;;;11.38;5.97;;;18.30;99.90;;;;;;5051369;28;20550;-55
2023/11/06 07:50:35;;;;;;;9.35;4.30;;;18.20;99.90;;;;;;5050941;28;20053;-55
2023/11/06 07:53:01;;;;;;;9.32;4.68;;;18.20;99.90;;;;;;4999665;28;20068;-55
2023/11/06 07:55:27;;;;;;;12.82;5.88;;;18.20;99.90;;;;;;5051548;28;20036;-54
2023/11/06 07:57:53;;;;;;;12.45;6.10;;;18.40;99.90;;;;;;5050900;28;20021;-57
2023/11/06 08:00:19;;;;;;;17.23;8.80;;;18.30;99.90;;;;;;5044089;28;20031;-60
2023/11/06 08:02:45;;;;;;;25.75;13.77;;;18.70;99.90;;;;;;5051793;28;20032;-55
2023/11/06 08:05:11;;;;;;;22.35;12.40;;;18.90;99.90;;;;;;5051443;28;20060;-54
2023/11/06 08:07:40;;;;;;;19.90;10.57;;;18.90;99.90;;;;;;5016301;28;20041;-54
2023/11/06 08:10:07;;;;;;;8.88;5.30;;;;;;;;;;5051505;28;20051;-54
2023/11/06 08:12:34;;;;;;;5.85;3.63;;;18.80;99.90;;;;;;4957261;28;20146;-55
2023/11/06 08:15:00;;;;;;;7.93;3.58;;;19.00;99.90;;;;;;4987782;28;20117;-56
2023/11/06 08:17:26;;;;;;;4.80;3.20;;;;;;;;;;4979972;28;20474;-61
2023/11/06 08:19:52;;;;;;;6.88;4.22;;;;;;;;;;4970428;28;20035;-54
2023/11/06 08:22:21;;;;;;;7.38;3.88;;;;;;;;;;4970490;28;20034;-56
2023/11/06 08:24:47;;;;;;;11.10;5.93;;;;;;;;;;4977743;28;20053;-54
2023/11/06 08:27:12;;;;;;;10.20;5.68;;;20.00;99.90;;;;;;4970649;28;20034;-53
2023/11/06 08:29:42;;;;;;;10.15;6.10;;;;;;;;;;4970050;28;20031;-52
2023/11/06 08:32:14;;;;;;;8.88;5.53;;;;;;;;;;4970472;28;20038;-55
2023/11/06 08:34:40;;;;;;;;;;;;;;;;;;4970327;28;20030;-53
2023/11/06 08:37:06;;;;;;;12.77;7.05;;;24.10;99.90;;;;;;4970499;28;20373;-53
2023/11/06 08:39:32;;;;;;;11.93;6.35;;;;;;;;;;4970480;28;20058;-52
2023/11/06 08:41:58;;;;;;;14.45;8.18;;;;;;;;;;4957237;28;20051;-54
2023/11/06 08:44:24;;;;;;;19.75;10.15;;;;;;;;;;4989810;28;20038;-53
2023/11/06 08:46:51;;;;;;;18.38;9.38;;;;;;;;;;4989587;28;20030;-54
2023/11/06 08:49:17;;;;;;;20.42;12.13;;;;;;;;;;5002755;28;20043;-55
2023/11/06 08:51:42;;;;;;;29.15;17.77;;;29.10;94.70;;;;;;4999509;28;20408;-53
2023/11/06 08:54:09;;;;;;;26.92;14.27;;;;;;;;;;5051354;28;20032;-55
2023/11/06 08:56:35;;;;;;;25.35;13.38;;;;;;;;;;4989579;28;20043;-53
2023/11/06 08:59:02;;;;;;;23.85;14.90;;;31.10;99.90;;;;;;4988697;28;20042;-54
2023/11/06 09:01:27;;;;;;;27.15;15.38;;;31.50;90.80;;;;;;4954003;28;20134;-55
2023/11/06 09:03:53;;;;;;;23.33;14.15;;;;;;;;;;4969706;28;20466;-53
2023/11/06 09:06:20;;;;;;;21.90;14.82;;;;;;;;;;4977533;28;20446;-55
2023/11/06 09:08:46;;;;;;;20.98;13.48;;;;;;;;;;4985996;28;20562;-57
2023/11/06 09:11:12;;;;;;;21.02;13.85;;;;;;;;;;4957236;28;20519;-54
2023/11/06 09:13:38;;;;;;;18.25;13.55;;;33.70;82.20;;;;;;4990323;28;20061;-52
2023/11/06 09:16:04;;;;;;;21.17;11.48;;;33.70;81.60;;;;;;4991883;28;20086;-55
2023/11/06 09:18:30;;;;;;;19.10;12.05;;;33.60;89.60;;;;;;4992342;28;20523;-57
2023/11/06 09:20:56;;;;;;;22.67;13.07;;;;;;;;;;4975159;28;20038;-53
2023/11/06 09:23:22;;;;;;;24.80;15.00;;;;;;;;;;4959250;28;20035;-55
2023/11/06 09:25:48;;;;;;;19.27;13.30;;;34.30;91.80;;;;;;4991171;28;20520;-55
2023/11/06 09:28:14;;;;;;;16.33;11.32;;;34.30;92.20;;;;;;5040201;28;20033;-52
2023/11/06 09:30:44;;;;;;;17.95;11.18;;;34.50;87.90;;;;;;5053617;28;20091;-54
2023/11/06 09:33:10;;;;;;;12.52;8.85;;;34.10;84.10;;;;;;5053829;28;20029;-53
2023/11/06 09:35:35;;;;;;;19.00;13.00;;;32.90;77.10;;;;;;5002271;28;20033;-52
2023/11/06 09:38:01;;;;;;;17.23;10.68;;;33.20;79.60;;;;;;5053422;28;20108;-51
2023/11/06 09:40:29;;;;;;;14.77;9.88;;;33.70;79.90;;;;;;5054307;28;20033;-55
2023/11/06 09:42:55;;;;;;;19.70;10.20;;;33.50;79.30;;;;;;5054457;28;20029;-54
2023/11/06 09:45:22;;;;;;;14.10;9.43;;;;;;;;;;5054004;28;20029;-54
2023/11/06 09:47:52;;;;;;;13.15;8.82;;;;;;;;;;5053907;28;20036;-55
2023/11/06 09:50:22;;;;;;;11.88;8.25;;;;;;;;;;5053855;28;20033;-56
2023/11/06 09:52:53;;;;;;;13.07;7.40;;;;;;;;;;5054329;28;20044;-53
2023/11/06 09:55:19;;;;;;;18.33;7.55;;;34.80;97.10;;;;;;5053983;28;20032;-55
2023/11/06 09:57:50;;;;;;;11.75;8.32;;;35.00;95.00;;;;;;5002590;28;20498;-53
2023/11/06 10:00:17;;;;;;;12.48;6.22;;;34.40;88.30;;;;;;5049129;28;20029;-55
2023/11/06 10:02:43;;;;;;;9.40;5.82;;;;;;;;;;5053698;28;20028;-53
2023/11/06 10:05:14;;;;;;;11.10;8.75;;;35.10;74.10;;;;;;5053526;28;20102;-54
2023/11/06 10:07:51;;;;;;;9.25;6.13;;;34.80;73.60;;;;;;5048120;28;20033;-53
2023/11/06 10:10:21;;;;;;;8.93;5.05;;;34.60;73.60;;;;;;5053564;28;20041;-55
2023/11/06 10:13:04;;;;;;;10.90;5.53;;;34.90;73.60;;;;;;5053712;28;20535;-54
2023/11/06 10:15:32;;;;;;;9.40;5.78;;;35.10;73.60;;;;;;5053587;28;20025;-53
2023/11/06 10:18:19;;;;;;;9.73;5.65;;;35.30;79.30;;;;;;5053393;28;20043;-54
2023/11/06 10:20:47;;;;;;;14.00;5.63;;;33.70;73.70;;;;;;5052319;28;20033;-54
2023/11/06 10:23:26;;;;;;;10.70;5.65;;;34.50;74.20;;;;;;5053328;28;20175;-53
2023/11/06 10:25:53;;;;;;;9.43;5.43;;;33.80;73.90;;;;;;5053375;28;20452;-56
2023/11/06 10:28:19;;;;;;;8.95;5.90;;;33.40;74.80;;;;;;5053323;28;20472;-56
2023/11/06 10:30:52;;;;;;;10.35;7.22;;;33.70;75.30;;;;;;5053160;28;20484;-55
2023/11/06 10:33:19;;;;;;;12.88;7.18;;;;;;;;;;5053487;28;20120;-55
2023/11/06 10:35:45;;;;;;;10.98;5.47;;;;;;;;;;5053178;28;20021;-54
2023/11/06 10:38:33;;;;;;;10.48;4.38;;;34.60;74.20;;;;;;5053280;28;20059;-56
2023/11/06 10:41:00;;;;;;;8.40;3.92;;;;;;;;;;5052832;28;20178;-56
2023/11/06 10:43:26;;;;;;;4.13;2.80;;;;;;;;;;5053308;28;20041;-53
2023/11/06 10:45:53;;;;;;;5.75;3.40;;;;;;;;;;5052753;28;20059;-56
2023/11/06 10:48:32;;;;;;;4.72;2.80;;;;;;;;;;5052906;28;20036;-53
2023/11/06 10:51:00;;;;;;;10.55;3.95;;;;;;;;;;5052540;28;20033;-54
2023/11/06 10:53:28;;;;;;;9.90;4.80;;;;;;;;;;5053032;28;20042;-54
2023/11/06 10:55:54;;;;;;;10.05;5.07;;;33.70;88.60;;;;;;5053202;28;20109;-54
2023/11/06 10:58:22;;;;;;;8.98;4.22;;;;;;;;;;5052857;28;20435;-54
2023/11/06 11:00:48;;;;;;;8.60;4.25;;;33.00;74.30;;;;;;5052585;28;20029;-54
2023/11/06 11:03:15;;;;;;;7.60;3.88;;;32.50;73.80;;;;;;5052570;28;20656;-54
2023/11/06 11:05:42;;;;;;;14.25;5.85;;;;;;;;;;4999115;28;20058;-54
2023/11/06 11:08:08;;;;;;;7.28;4.47;;;;;;;;;;5013013;28;20034;-53
2023/11/06 11:10:34;;;;;;;8.85;3.88;;;;;;;;;;5010699;28;20100;-54
2023/11/06 11:13:02;;;;;;;7.88;4.53;;;29.30;97.70;;;;;;5012631;28;20133;-55
2023/11/06 11:15:31;;;;;;;6.50;4.18;;;;;;;;;;5012665;28;20066;-53
2023/11/06 11:17:58;;;;;;;10.18;6.00;;;;;;;;;;5012625;28;20437;-54
2023/11/06 11:20:24;;;;;;;10.05;5.75;;;;;;;;;;5012783;28;20509;-56
2023/11/06 11:23:07;;;;;;;8.00;5.38;;;;;;;;;;5012590;28;20551;-56
2023/11/06 11:25:58;;;;;;;10.52;5.18;;;26.70;81.10;;;;;;5012752;28;20029;-52
2023/11/06 11:28:26;;;;;;;7.53;4.45;;;;;;;;;;4994121;28;20048;-54
2023/11/06 11:30:55;;;;;;;12.70;4.70;;;;;;;;;;5012303;28;20045;-52
2023/11/06 11:33:55;;;;;;;11.13;5.38;;;25.30;80.60;;;;;;5012419;28;20084;-52
2023/11/06 11:36:28;;;;;;;7.93;4.78;;;25.30;82.10;;;;;;5012449;28;20248;-55
2023/11/06 11:38:55;;;;;;;10.23;4.47;;;;;;;;;;5012287;28;20362;-54
2023/11/06 11:41:21;;;;;;;8.10;3.80;;;24.90;81.70;;;;;;5012496;28;20034;-55
2023/11/06 11:43:47;;;;;;;9.93;3.72;;;25.00;83.10;;;;;;5012253;28;20496;-52
2023/11/06 11:46:36;;;;;;;8.95;5.57;;;24.80;83.00;;;;;;4991408;28;20041;-54
2023/11/06 11:49:04;;;;;;;7.45;3.47;;;24.70;83.00;;;;;;5003429;28;20029;-58
2023/11/06 11:51:49;;;;;;;6.68;3.50;;;24.70;84.30;;;;;;5009855;28;20058;-54
2023/11/06 11:54:29;;;;;;;6.63;3.00;;;;;;;;;;5007665;28;20026;-55
2023/11/06 11:56:56;;;;;;;7.20;3.30;;;;;;;;;;5001151;28;20105;-54
2023/11/06 11:59:22;;;;;;;4.13;2.38;;;;;;;;;;4998821;28;20041;-54
2023/11/06 12:01:49;;;;;;;6.53;3.08;;;;;;;;;;4992238;28;20029;-54
2023/11/06 12:04:22;;;;;;;7.10;3.65;;;24.20;91.90;;;;;;4998217;28;20057;-53
2023/11/06 12:06:49;;;;;;;8.43;3.65;;;;;;;;;;5031688;28;20053;-53
2023/11/06 12:09:16;;;;;;;6.53;2.28;;;;;;;;;;5031904;28;20032;-52
2023/11/06 12:11:45;;;;;;;5.78;3.00;;;24.30;81.80;;;;;;5031542;28;20038;-52
2023/11/06 12:14:11;;;;;;;5.68;2.80;;;24.10;83.40;;;;;;5031832;28;20036;-54
2023/11/06 12:16:50;;;;;;;8.07;3.00;;;;;;;;;;4980630;28;20037;-53
2023/11/06 12:19:16;;;;;;;6.25;2.30;;;;;;;;;;5031855;28;20432;-52
2023/11/06 12:21:44;;;;;;;6.35;2.97;;;24.00;83.00;;;;;;5035154;28;20420;-54
2023/11/06 12:24:10;;;;;;;6.22;2.28;;;23.90;84.20;;;;;;4989290;28;20042;-55
2023/11/06 12:26:50;;;;;;;5.65;2.47;;;23.60;84.70;;;;;;4989854;28;20042;-54
2023/11/06 12:29:26;;;;;;;5.88;2.85;;;23.50;90.10;;;;;;4989727;28;20378;-56
2023/11/06 12:31:53;;;;;;;8.63;2.47;;;;;;;;;;4957160;28;20042;-54
2023/11/06 12:34:22;;;;;;;9.50;2.55;;;23.20;85.90;;;;;;4956243;28;20069;-54
2023/11/06 12:36:58;;;;;;;7.65;2.88;;;23.00;87.30;;;;;;4999338;28;20032;-54
2023/11/06 12:39:26;;;;;;;13.43;3.95;;;22.70;87.20;;;;;;5008234;28;20799;-55
2023/11/06 12:41:57;;;;;;;6.65;2.80;;;22.60;87.80;;;;;;4995494;28;20027;-52
2023/11/06 12:44:38;;;;;;;5.38;2.03;;;22.30;89.20;;;;;;4992154;28;20501;-52
2023/11/06 12:47:09;;;;;;;7.10;2.30;;;22.10;90.20;;;;;;4992364;28;20042;-54
2023/11/06 12:49:52;;;;;;;6.97;2.28;;;22.20;90.30;;;;;;4998951;28;20069;-52
2023/11/06 12:52:19;;;;;;;4.47;2.67;;;;;;;;;;5007942;28;20117;-58
2023/11/06 12:54:48;;;;;;;7.78;3.30;;;21.80;99.90;;;;;;5013082;28;20076;-52
2023/11/06 12:57:23;;;;;;;9.52;3.15;;;21.70;91.70;;;;;;5019766;28;20033;-54
2023/11/06 12:59:49;;;;;;;10.73;3.67;;;21.60;92.00;;;;;;5050431;28;20032;-52
2023/11/06 13:02:14;;;;;;;9.65;3.53;;;21.60;92.70;;;;;;5053546;28;20032;-52
2023/11/06 13:04:42;;;;;;;9.27;3.53;;;21.80;93.00;;;;;;4968828;28;20049;-52
2023/11/06 13:07:11;;;;;;;8.70;3.10;;;21.80;92.90;;;;;;5053156;28;20033;-52
2023/11/06 13:09:40;;;;;;;11.80;3.80;;;21.80;92.90;;;;;;5052976;28;20111;-52
2023/11/06 13:12:07;;;;;;;11.65;4.35;;;21.80;92.80;;;;;;5052516;28;20041;-52
2023/11/06 13:14:33;;;;;;;10.10;3.83;;;21.70;93.20;;;;;;5000321;28;20045;-53
2023/11/06 13:17:04;;;;;;;8.35;3.88;;;21.60;93.50;;;;;;5053499;28;20112;-52
2023/11/06 13:19:31;;;;;;;8.38;3.47;;;21.40;93.90;;;;;;5053898;28;20029;-53
2023/11/06 13:21:58;;;;;;;8.45;4.32;;;21.30;94.60;;;;;;5054512;28;20033;-53